LFJL/ETZ METAR and TAF weather

Enter ICAO airport designator
Station Type Date Time Source
LFJL METAR 2020/04/02 02:00 UTC NOAA

LFJL 020200Z AUTO 04004KT CAVOK 01/M07 Q1014


Station Type Date Time Source
LFJL Decoded METAR 2020/04/02 02:00 UTC NOAA

Metz-Nancy-Lorraine, France (LFJL) 48-59N 006-15E
Apr 01, 2020 - 10:00 PM EDT / 2020.04.02 0200 UTC
Wind: from the NE (040 degrees) at 5 MPH (4 KT):0
Visibility: greater than 7 mile(s):0
Temperature: 33 F (1 C)
Windchill: 28 F (-2 C):1
Dew Point: 19 F (-7 C)
Relative Humidity: 55%
Pressure (altimeter): 29.94 in. Hg (1014 hPa)
ob: LFJL 020200Z AUTO 04004KT CAVOK 01/M07 Q1014
cycle: 2

Station Type Date Time Source
LFJL TAF 2020/03/23 21:39 UTC NOAA

TAF TAF LFJL 232135Z 2321/2418 CNL

Example: see airport list